createdAt,value
2022-11-30T00:02:11.533Z,13.77
2022-11-30T00:04:41.381Z,13.93
2022-11-30T00:07:11.521Z,14.00
2022-11-30T00:09:41.297Z,13.85
2022-11-30T00:12:13.152Z,13.60
2022-11-30T00:14:43.424Z,16.38
2022-11-30T00:17:14.738Z,14.65
2022-11-30T00:19:44.821Z,16.08
2022-11-30T00:22:14.630Z,15.77
2022-11-30T00:24:44.602Z,18.33
2022-11-30T00:27:15.828Z,16.60
2022-11-30T00:29:45.598Z,17.35
2022-11-30T00:32:15.350Z,20.60
2022-11-30T00:34:45.662Z,20.13
2022-11-30T00:37:16.034Z,21.55
2022-11-30T00:39:45.913Z,23.23
2022-11-30T00:42:17.093Z,22.25
2022-11-30T00:44:47.028Z,20.48
2022-11-30T00:49:50.307Z,17.65
2022-11-30T00:52:20.093Z,14.50
2022-11-30T00:54:49.870Z,11.60
2022-11-30T00:57:21.026Z,9.75
2022-11-30T00:59:50.970Z,8.18
2022-11-30T01:02:20.733Z,8.40
2022-11-30T01:04:50.644Z,8.13
2022-11-30T01:07:20.783Z,10.48
2022-11-30T01:09:50.569Z,6.75
2022-11-30T01:12:22.366Z,7.18
2022-11-30T01:14:52.886Z,12.40
2022-11-30T01:17:23.147Z,8.30
2022-11-30T01:19:53.083Z,11.40
2022-11-30T01:22:22.841Z,8.68
2022-11-30T01:24:52.735Z,7.45
2022-11-30T01:27:24.395Z,7.72
2022-11-30T01:29:54.180Z,11.30
2022-11-30T01:32:23.964Z,8.40
2022-11-30T01:34:53.928Z,7.63
2022-11-30T01:37:23.921Z,7.95
2022-11-30T01:39:53.645Z,9.18
2022-11-30T01:42:24.745Z,6.45
2022-11-30T01:44:57.072Z,7.35
2022-11-30T01:47:31.636Z,7.57
2022-11-30T01:50:07.592Z,9.73
2022-11-30T01:52:41.236Z,7.32
2022-11-30T01:55:18.583Z,6.72
2022-11-30T01:57:55.269Z,5.82
2022-11-30T02:00:25.405Z,6.88
2022-11-30T02:03:01.149Z,6.85
2022-11-30T02:05:32.580Z,6.68
2022-11-30T02:08:02.642Z,6.55
2022-11-30T02:10:35.582Z,7.30
2022-11-30T02:13:41.264Z,5.63
2022-11-30T02:16:24.172Z,7.03
2022-11-30T02:19:05.952Z,6.78
2022-11-30T02:21:42.710Z,6.53
2022-11-30T02:24:38.248Z,6.13
2022-11-30T02:27:26.967Z,6.28
2022-11-30T02:30:04.549Z,6.28
2022-11-30T02:32:40.031Z,7.03
2022-11-30T02:35:11.327Z,6.43
2022-11-30T02:37:42.983Z,5.78
2022-11-30T02:40:16.894Z,6.57
2022-11-30T02:45:20.054Z,5.95
2022-11-30T02:47:56.713Z,6.50
2022-11-30T02:50:31.790Z,6.75
2022-11-30T02:53:02.509Z,7.38
2022-11-30T02:55:32.839Z,7.95
2022-11-30T02:58:02.587Z,6.75
2022-11-30T03:00:33.666Z,6.95
2022-11-30T03:03:03.368Z,6.72
2022-11-30T03:05:33.154Z,7.13
2022-11-30T03:08:02.965Z,7.38
2022-11-30T03:10:32.862Z,6.45
2022-11-30T03:13:03.135Z,7.13
2022-11-30T03:15:34.723Z,6.95
2022-11-30T03:18:05.758Z,7.38
2022-11-30T03:20:35.554Z,6.68
2022-11-30T03:23:05.361Z,7.03
2022-11-30T03:25:35.704Z,7.15
2022-11-30T03:28:05.732Z,7.22
2022-11-30T03:30:36.905Z,7.38
2022-11-30T03:33:06.631Z,7.20
2022-11-30T03:35:36.390Z,9.55
2022-11-30T03:38:06.204Z,8.57
2022-11-30T03:40:37.669Z,9.27
2022-11-30T03:43:07.442Z,7.90
2022-11-30T03:45:38.740Z,8.35
2022-11-30T03:48:08.572Z,11.43
2022-11-30T03:50:38.332Z,8.18
2022-11-30T03:53:08.149Z,8.32
2022-11-30T03:55:37.892Z,8.52
2022-11-30T03:58:07.732Z,7.80
2022-11-30T04:00:39.609Z,8.02
2022-11-30T04:03:09.431Z,8.25
2022-11-30T04:05:39.201Z,7.35
2022-11-30T04:08:08.970Z,8.50
2022-11-30T04:10:38.951Z,8.32
2022-11-30T04:13:09.256Z,7.53
2022-11-30T04:15:40.890Z,8.13
2022-11-30T04:18:11.301Z,7.93
2022-11-30T04:20:41.048Z,8.00
2022-11-30T04:23:11.539Z,8.68
2022-11-30T04:25:42.185Z,9.20
2022-11-30T04:28:12.150Z,8.52
2022-11-30T04:30:44.364Z,10.05
2022-11-30T04:33:15.134Z,8.35
2022-11-30T04:35:48.189Z,8.70
2022-11-30T04:38:18.074Z,8.50
2022-11-30T04:40:47.787Z,8.45
2022-11-30T04:43:17.796Z,7.68
2022-11-30T04:45:49.651Z,7.28
2022-11-30T04:48:20.527Z,7.95
2022-11-30T04:50:50.335Z,7.13
2022-11-30T04:53:20.230Z,7.40
2022-11-30T04:55:50.199Z,7.22
2022-11-30T04:58:20.052Z,8.05
2022-11-30T05:00:51.736Z,7.78
2022-11-30T05:03:21.542Z,7.32
2022-11-30T05:05:51.301Z,9.43
2022-11-30T05:08:21.177Z,8.13
2022-11-30T05:10:53.507Z,9.35
2022-11-30T05:13:25.574Z,9.27
2022-11-30T05:15:57.328Z,9.07
2022-11-30T05:18:29.415Z,8.13
2022-11-30T05:20:59.234Z,9.07
2022-11-30T05:23:29.530Z,8.27
2022-11-30T05:25:59.233Z,7.68
2022-11-30T05:28:29.012Z,8.02
2022-11-30T05:31:04.166Z,7.20
2022-11-30T05:33:34.588Z,8.50
2022-11-30T05:36:10.129Z,7.82
2022-11-30T05:38:40.855Z,7.93
2022-11-30T05:41:10.592Z,10.80
2022-11-30T05:43:40.719Z,7.15
2022-11-30T05:46:11.936Z,6.43
2022-11-30T05:48:42.110Z,7.10
2022-11-30T05:51:15.393Z,7.38
2022-11-30T05:53:45.931Z,6.75
2022-11-30T05:56:17.462Z,6.88
2022-11-30T05:58:48.032Z,6.95
2022-11-30T06:01:24.526Z,6.47
2022-11-30T06:03:55.068Z,6.40
2022-11-30T06:06:25.092Z,5.72
2022-11-30T06:08:55.563Z,6.40
2022-11-30T06:11:25.694Z,8.43
2022-11-30T06:13:55.957Z,7.70
2022-11-30T06:16:27.991Z,5.90
2022-11-30T06:18:58.378Z,5.85
2022-11-30T06:21:28.186Z,5.05
2022-11-30T06:23:58.419Z,4.85
2022-11-30T06:26:28.323Z,5.57
2022-11-30T06:28:58.079Z,5.07
2022-11-30T06:31:29.280Z,5.43
2022-11-30T06:34:07.363Z,6.45
2022-11-30T06:36:37.134Z,5.80
2022-11-30T06:39:06.835Z,6.22
2022-11-30T06:41:36.628Z,6.75
2022-11-30T06:44:09.242Z,6.15
2022-11-30T06:46:40.353Z,5.70
2022-11-30T06:49:10.168Z,4.72
2022-11-30T06:51:39.929Z,6.03
2022-11-30T06:54:09.724Z,6.57
2022-11-30T06:56:39.385Z,7.45
2022-11-30T06:59:09.472Z,7.95
2022-11-30T07:01:40.771Z,6.57
2022-11-30T07:04:10.605Z,8.07
2022-11-30T07:06:40.408Z,7.70
2022-11-30T07:09:10.454Z,12.68
2022-11-30T07:11:40.838Z,11.60
2022-11-30T07:14:11.025Z,11.65
2022-11-30T07:16:42.944Z,8.43
2022-11-30T07:19:13.020Z,8.38
2022-11-30T07:21:42.826Z,8.48
2022-11-30T07:24:30.613Z,9.82
2022-11-30T07:27:01.702Z,8.60
2022-11-30T07:29:31.775Z,8.65
2022-11-30T07:32:03.147Z,8.25
2022-11-30T07:34:33.003Z,7.30
2022-11-30T07:37:02.846Z,5.95
2022-11-30T07:39:32.943Z,7.03
2022-11-30T07:42:03.018Z,6.15
2022-11-30T07:44:32.985Z,8.60
2022-11-30T07:47:04.302Z,7.22
2022-11-30T07:49:34.197Z,7.32
2022-11-30T07:52:04.671Z,9.52
2022-11-30T07:54:34.436Z,5.85
2022-11-30T07:57:04.286Z,8.80
2022-11-30T07:59:34.050Z,11.32
2022-11-30T08:02:05.242Z,8.63
2022-11-30T08:04:35.171Z,7.70
2022-11-30T08:07:05.022Z,7.22
2022-11-30T08:09:35.274Z,8.25
2022-11-30T08:12:06.210Z,7.45
2022-11-30T08:14:56.897Z,6.15
2022-11-30T08:17:28.269Z,9.85
2022-11-30T08:19:57.988Z,9.43
2022-11-30T08:22:27.829Z,9.65
2022-11-30T08:24:57.610Z,8.15
2022-11-30T08:27:27.591Z,8.25
2022-11-30T08:29:57.454Z,8.48
2022-11-30T08:32:28.716Z,10.88
2022-11-30T08:34:58.419Z,8.70
2022-11-30T08:37:28.182Z,9.18
2022-11-30T08:39:57.924Z,7.43
2022-11-30T08:42:29.069Z,7.40
2022-11-30T08:44:58.984Z,9.32
2022-11-30T08:47:31.576Z,9.60
2022-11-30T08:50:01.809Z,8.65
2022-11-30T08:52:31.619Z,7.72
2022-11-30T08:55:01.342Z,7.80
2022-11-30T08:57:31.372Z,6.43
2022-11-30T09:00:01.584Z,6.82
2022-11-30T09:02:32.838Z,5.95
2022-11-30T09:05:02.722Z,6.97
2022-11-30T09:07:32.612Z,7.05
2022-11-30T09:10:02.637Z,8.07
2022-11-30T09:12:36.505Z,7.40
2022-11-30T09:15:08.049Z,9.07
2022-11-30T09:17:39.746Z,9.23
2022-11-30T09:20:10.176Z,8.25
2022-11-30T09:22:39.985Z,8.38
2022-11-30T09:25:10.668Z,6.78
2022-11-30T09:27:40.363Z,7.60
2022-11-30T09:30:11.260Z,5.75
2022-11-30T09:32:42.408Z,6.93
2022-11-30T09:35:13.077Z,7.65
2022-11-30T09:37:43.104Z,8.68
2022-11-30T09:40:14.674Z,7.25
2022-11-30T09:42:53.751Z,7.80
2022-11-30T09:45:28.662Z,5.82
2022-11-30T09:48:18.190Z,6.68
2022-11-30T09:50:50.635Z,6.10
2022-11-30T09:53:29.463Z,7.63
2022-11-30T09:56:01.584Z,7.15
2022-11-30T09:58:40.975Z,7.28
2022-11-30T10:01:17.380Z,7.78
2022-11-30T10:03:49.097Z,6.55
2022-11-30T10:06:26.355Z,6.53
2022-11-30T10:09:13.601Z,7.75
2022-11-30T10:11:55.189Z,6.10
2022-11-30T10:14:48.941Z,6.18
2022-11-30T10:17:31.585Z,7.15
2022-11-30T10:20:16.905Z,6.75
2022-11-30T10:23:01.919Z,7.57
2022-11-30T10:25:42.058Z,7.65
2022-11-30T10:28:45.686Z,8.00
2022-11-30T10:31:12.289Z,7.57
2022-11-30T10:33:46.592Z,9.07
2022-11-30T10:36:26.495Z,8.77
2022-11-30T10:38:58.871Z,7.18
2022-11-30T10:41:35.053Z,7.65
2022-11-30T10:44:08.002Z,7.35
2022-11-30T10:46:42.449Z,9.33
2022-11-30T10:49:16.423Z,7.50
2022-11-30T10:51:50.881Z,7.55
2022-11-30T10:54:23.051Z,5.53
2022-11-30T10:56:52.780Z,7.72
2022-11-30T10:59:26.563Z,7.55
2022-11-30T11:04:27.943Z,9.13
2022-11-30T11:07:08.981Z,10.70
2022-11-30T11:09:42.266Z,8.88
2022-11-30T11:12:18.757Z,8.68
2022-11-30T11:14:49.104Z,11.98
2022-11-30T11:17:23.985Z,11.38
2022-11-30T11:19:54.065Z,11.45
2022-11-30T11:22:26.841Z,10.00
2022-11-30T11:25:11.822Z,13.25
2022-11-30T11:27:45.003Z,12.90
2022-11-30T11:30:20.193Z,14.68
2022-11-30T11:32:59.340Z,14.68
2022-11-30T11:35:38.539Z,15.02
2022-11-30T11:38:21.815Z,14.15
2022-11-30T11:40:57.347Z,13.52
2022-11-30T11:43:29.705Z,14.45
2022-11-30T11:46:02.970Z,16.23
2022-11-30T11:48:39.998Z,14.95
2022-11-30T11:51:13.990Z,12.05
2022-11-30T11:53:53.864Z,14.40
2022-11-30T11:56:28.291Z,13.65
2022-11-30T11:59:01.870Z,11.15
2022-11-30T12:01:52.183Z,11.18
2022-11-30T12:04:40.427Z,11.80
2022-11-30T12:07:21.489Z,10.32
2022-11-30T12:10:12.621Z,8.95
2022-11-30T12:12:54.975Z,9.48
2022-11-30T12:15:40.029Z,14.32
